Time;durP1;ratioP1;P1;durP2;ratioP2;P2;SDS_P1;SDS_P2;PMS_P1;PMS_P2;Temp;Humidity;BMP_temperature;BMP_pressure;BME280_temperature;BME280_humidity;BME280_pressure;Samples;Min_cycle;Max_cycle;Signal;HPM_P1;HPM_P2
2022/06/17 00:02:23;;;;;;;16.80;9.80;;;;;;;18.85;62.92;99157.55;235977;1203;139544;-57
2022/06/17 00:07:26;;;;;;;12.80;10.10;;;;;;;18.83;63.15;99152.88;235918;1203;138625;-58
2022/06/17 00:12:29;;;;;;;15.90;11.20;;;;;;;18.77;62.98;99153.96;235845;1203;138855;-59
2022/06/17 00:17:32;;;;;;;12.90;10.50;;;;;;;18.68;63.03;99160.67;235697;1203;139688;-57
2022/06/17 00:22:39;;;;;;;13.20;10.40;;;;;;;18.66;63.40;99158.94;235897;1202;139933;-57
2022/06/17 00:27:42;;;;;;;17.50;11.30;;;;;;;18.63;63.29;99151.83;234958;1203;139377;-58
2022/06/17 00:32:45;;;;;;;18.90;11.70;;;;;;;18.59;63.28;99143.76;235738;1203;138839;-59
2022/06/17 00:37:48;;;;;;;15.70;12.00;;;;;;;18.57;63.34;99148.04;235690;1204;138733;-56
2022/06/17 00:42:51;;;;;;;16.50;11.40;;;;;;;18.52;63.39;99140.47;235718;1204;138951;-59
2022/06/17 00:48:15;;;;;;;14.10;11.50;;;;;;;18.47;63.20;99143.98;235771;1203;138677;-57
2022/06/17 00:53:28;;;;;;;13.70;11.20;;;;;;;18.47;63.37;99146.20;235791;1203;140015;-58
2022/06/17 00:58:53;;;;;;;16.70;12.60;;;;;;;18.51;63.21;99152.38;235904;1203;138907;-57
2022/06/17 01:04:00;;;;;;;17.50;11.90;;;;;;;18.49;63.00;99155.30;235919;1203;139677;-59
2022/06/17 01:14:38;;;;;;;14.50;10.80;;;;;;;18.40;63.11;99156.67;235780;1203;139019;-56
2022/06/17 01:19:47;;;;;;;13.30;9.40;;;;;;;18.33;62.89;99164.29;235606;1203;139391;-57
2022/06/17 01:25:13;;;;;;;12.70;8.70;;;;;;;18.35;63.32;99173.13;235813;1204;139464;-61
2022/06/17 01:30:21;;;;;;;12.30;8.60;;;;;;;18.39;63.17;99171.54;235769;1203;139071;-60
2022/06/17 01:35:33;;;;;;;10.70;9.00;;;;;;;18.42;63.05;99180.03;235706;1204;139892;-60
2022/06/17 01:40:37;;;;;;;15.80;9.60;;;;;;;18.35;63.17;99189.29;235777;1204;140360;-60
2022/06/17 01:45:45;;;;;;;13.30;9.50;;;;;;;18.35;63.31;99190.16;235615;1202;139205;-60
2022/06/17 01:50:50;;;;;;;12.60;9.30;;;;;;;18.38;63.18;99187.28;235784;1204;141194;-60
2022/06/17 01:56:07;;;;;;;14.00;9.20;;;;;;;18.39;63.05;99197.73;235687;1203;140308;-61
2022/06/17 02:01:11;;;;;;;13.60;10.20;;;;;;;18.42;63.27;99206.61;235468;1203;139780;-60
2022/06/17 02:06:23;;;;;;;14.40;9.60;;;;;;;18.40;62.90;99212.91;235788;1203;139512;-59
2022/06/17 02:11:27;;;;;;;13.90;9.90;;;;;;;18.31;63.05;99213.55;235665;1203;138734;-61
2022/06/17 02:16:52;;;;;;;11.30;9.30;;;;;;;18.24;63.09;99212.96;235836;1203;138904;-59
2022/06/17 02:22:19;;;;;;;14.10;9.10;;;;;;;18.17;63.20;99223.27;235871;1204;138982;-62
2022/06/17 02:27:24;;;;;;;15.30;9.20;;;;;;;18.15;63.30;99227.56;235696;1203;139388;-62
2022/06/17 02:32:30;;;;;;;14.30;10.20;;;;;;;18.16;63.54;99232.16;233256;1203;138982;-59
2022/06/17 02:37:33;;;;;;;16.30;10.30;;;;;;;18.19;63.68;99239.63;235715;1203;139195;-61
2022/06/17 02:42:38;;;;;;;15.00;9.40;;;;;;;18.21;63.56;99236.05;235766;1202;139375;-62
2022/06/17 02:47:41;;;;;;;17.60;10.50;;;;;;;18.22;63.80;99235.73;235607;1203;138573;-61
2022/06/17 02:52:46;;;;;;;13.30;10.20;;;;;;;18.20;63.68;99232.84;235760;1204;139422;-61
2022/06/17 02:57:52;;;;;;;16.30;9.90;;;;;;;18.23;63.59;99248.59;235640;1203;139739;-62
2022/06/17 03:03:02;;;;;;;12.60;9.40;;;;;;;18.23;63.50;99251.49;235740;1203;139387;-58
2022/06/17 03:08:20;;;;;;;17.10;10.60;;;;;;;18.23;63.67;99255.06;235748;1203;138908;-58
2022/06/17 03:13:35;;;;;;;14.70;9.90;;;;;;;18.23;63.58;99266.05;235840;1203;139258;-57
2022/06/17 03:18:39;;;;;;;;;;;;;;;18.18;63.53;99273.48;235728;1204;139464;-58
2022/06/17 03:23:53;;;;;;;15.60;10.10;;;;;;;18.10;63.97;99273.11;235358;1203;125421;-56
2022/06/17 03:28:58;;;;;;;11.00;9.10;;;;;;;18.04;63.99;99271.45;235826;1202;139544;-59
2022/06/17 03:34:15;;;;;;;16.40;9.60;;;;;;;18.03;63.93;99270.52;235688;1203;140780;-58
2022/06/17 03:39:39;;;;;;;13.40;9.50;;;;;;;18.05;64.21;99276.57;235709;1202;139687;-58
2022/06/17 03:44:51;;;;;;;13.90;9.50;;;;;;;18.12;64.37;99283.69;235716;1203;138670;-58
2022/06/17 03:50:02;;;;;;;13.90;10.10;;;;;;;18.12;64.20;99285.32;235666;1203;139931;-58
2022/06/17 03:55:08;;;;;;;13.60;10.20;;;;;;;18.11;64.37;99283.81;235759;1203;141029;-57
2022/06/17 04:01:11;;;;;;;13.50;9.50;;;;;;;18.10;64.24;99287.95;235647;1204;140198;-57
2022/06/17 04:06:29;;;;;;;13.10;9.70;;;;;;;18.18;64.36;99301.41;235190;1207;141838;-57
2022/06/17 04:11:37;;;;;;;15.80;10.30;;;;;;;18.30;64.50;99309.20;235462;1202;141262;-57
2022/06/17 04:17:08;;;;;;;14.20;9.50;;;;;;;18.38;64.57;99317.84;235781;1204;139234;-58
2022/06/17 04:22:19;;;;;;;13.10;9.80;;;;;;;18.46;64.40;99325.31;235706;1203;139195;-57
2022/06/17 04:27:57;;;;;;;13.40;9.60;;;;;;;18.59;64.51;99320.91;235641;1203;138487;-57
2022/06/17 04:33:12;;;;;;;16.00;9.20;;;;;;;18.69;64.25;99335.66;235422;1203;138754;-57
2022/06/17 04:38:15;;;;;;;13.20;8.60;;;;;;;18.75;64.22;99343.25;235747;1202;140622;-59
2022/06/17 04:43:53;;;;;;;16.40;9.60;;;;;;;18.88;63.95;99339.58;234284;1203;139339;-56
2022/06/17 04:48:59;;;;;;;15.30;9.30;;;;;;;18.87;63.95;99343.41;235684;1203;138789;-59
2022/06/17 04:54:06;;;;;;;17.90;9.70;;;;;;;18.89;64.02;99338.92;235687;1203;138644;-59
2022/06/17 04:59:38;;;;;;;11.90;9.20;;;;;;;18.90;63.81;99360.98;235653;1203;138536;-60
2022/06/17 05:04:41;;;;;;;13.80;8.90;;;;;;;18.84;63.75;99353.52;235797;1202;138989;-59
2022/06/17 05:10:01;;;;;;;14.40;9.00;;;;;;;18.82;63.65;99341.02;235658;1203;139374;-60
2022/06/17 05:15:07;;;;;;;12.60;8.90;;;;;;;18.81;63.54;99336.27;235665;1203;141213;-58
2022/06/17 05:20:20;;;;;;;10.70;8.80;;;;;;;18.79;63.43;99351.58;234801;1203;139079;-60
2022/06/17 05:25:32;;;;;;;12.80;8.20;;;;;;;18.76;63.61;99352.92;235733;1202;138742;-57
2022/06/17 05:30:41;;;;;;;12.40;7.60;;;;;;;18.76;63.66;99350.36;235626;1203;138946;-56
2022/06/17 05:35:48;;;;;;;13.50;7.60;;;;;;;18.75;63.38;99353.71;235719;1203;139050;-55
2022/06/17 05:40:52;;;;;;;11.30;7.90;;;;;;;18.80;63.53;99368.89;235850;1203;139730;-53
2022/06/17 05:45:57;;;;;;;22.20;17.10;;;;;;;18.93;63.95;99366.75;235804;1203;138730;-52
2022/06/17 05:51:05;;;;;;;14.80;9.80;;;;;;;19.13;63.86;99371.94;235348;1203;139667;-54
2022/06/17 05:56:32;;;;;;;63.20;52.10;;;;;;;19.23;63.85;99370.10;235765;1202;139057;-53
2022/06/17 06:01:36;;;;;;;13.80;9.50;;;;;;;19.37;63.70;99375.32;235888;1203;140036;-62
2022/06/17 06:06:40;;;;;;;8.90;6.90;;;;;;;19.47;63.60;99374.36;235735;1203;139047;-61
2022/06/17 06:11:43;;;;;;;12.20;7.50;;;;;;;19.62;63.32;99385.39;235754;1203;139283;-60
2022/06/17 06:16:48;;;;;;;20.10;16.50;;;;;;;19.64;63.00;99382.70;235883;1203;139872;-60
2022/06/17 06:21:53;;;;;;;9.50;7.20;;;;;;;19.71;62.84;99397.21;235680;1202;139033;-59
2022/06/17 06:26:56;;;;;;;8.80;6.40;;;;;;;19.75;62.80;99402.75;235723;1203;139101;-62
2022/06/17 06:32:10;;;;;;;8.50;6.30;;;;;;;19.80;62.46;99406.79;235774;1203;138728;-59
2022/06/17 06:37:37;;;;;;;25.90;21.00;;;;;;;19.81;62.26;99402.70;235821;1203;139311;-58
2022/06/17 06:42:41;;;;;;;8.30;6.30;;;;;;;19.90;62.34;99404.23;235570;1202;139620;-60
2022/06/17 06:48:05;;;;;;;13.30;9.60;;;;;;;20.08;62.30;99411.67;233234;1203;139254;-59
2022/06/17 06:53:09;;;;;;;10.50;7.10;;;;;;;20.18;62.06;99410.73;235719;1203;139458;-58
2022/06/17 06:58:15;;;;;;;12.70;7.00;;;;;;;20.20;61.85;99410.55;235921;1203;139333;-58
2022/06/17 07:03:25;;;;;;;10.20;7.60;;;;;;;20.20;61.73;99402.94;235736;1202;139112;-60
2022/06/17 07:08:31;;;;;;;15.90;8.20;;;;;;;20.14;61.54;99411.79;235818;1202;138575;-62
2022/06/17 07:13:34;;;;;;;15.40;9.80;;;;;;;20.06;61.69;99419.98;235636;1203;140633;-60
2022/06/17 07:18:38;;;;;;;63.40;38.70;;;;;;;19.92;61.87;99422.41;235723;1203;139666;-57
2022/06/17 07:23:44;;;;;;;14.40;9.60;;;;;;;19.79;62.04;99420.54;234591;1202;139814;-59
2022/06/17 07:28:49;;;;;;;9.90;7.50;;;;;;;19.63;62.05;99422.24;235877;1203;139769;-63
2022/06/17 07:33:52;;;;;;;10.30;8.00;;;;;;;19.55;62.59;99429.08;235919;1202;138643;-63
2022/06/17 07:44:18;;;;;;;11.80;9.20;;;;;;;19.24;62.95;99444.66;235890;1203;138840;-61
2022/06/17 07:49:21;;;;;;;12.90;10.40;;;;;;;19.20;63.32;99438.41;235909;1201;138590;-60
2022/06/17 07:54:24;;;;;;;11.70;10.30;;;;;;;19.28;63.69;99439.63;235838;1201;140449;-57
2022/06/17 07:59:29;;;;;;;12.40;10.30;;;;;;;19.43;63.91;99446.31;235955;1203;139450;-60
2022/06/17 08:04:34;;;;;;;200.70;176.50;;;;;;;19.60;64.07;99445.60;235893;1203;139180;-57
2022/06/17 08:09:38;;;;;;;13.50;11.90;;;;;;;19.74;63.94;99442.42;235941;1203;139771;-57
2022/06/17 08:14:43;;;;;;;457.10;322.30;;;;;;;19.82;63.54;99444.56;235913;1202;139349;-56
2022/06/17 08:19:48;;;;;;;18.70;14.10;;;;;;;19.84;63.44;99448.88;235947;1203;139296;-58
2022/06/17 08:24:53;;;;;;;83.50;57.30;;;;;;;19.95;63.32;99458.89;235654;1203;143724;-56
2022/06/17 08:29:57;;;;;;;18.10;13.40;;;;;;;20.03;63.26;99460.17;235767;1203;139516;-58
2022/06/17 08:35:06;;;;;;;12.60;11.20;;;;;;;20.17;63.16;99468.45;235920;1202;138800;-58
2022/06/17 08:40:41;;;;;;;13.10;10.70;;;;;;;20.25;62.69;99462.90;236070;1203;141145;-60
2022/06/17 08:46:25;;;;;;;18.40;12.00;;;;;;;20.18;62.33;99463.48;235951;1202;140011;-61
2022/06/17 08:51:52;;;;;;;17.80;12.00;;;;;;;20.08;62.07;99472.73;233228;1201;139269;-58
2022/06/17 08:57:05;;;;;;;419.50;363.40;;;;;;;20.01;62.06;99474.96;235962;1202;138829;-60
2022/06/17 09:02:19;;;;;;;19.90;17.70;;;;;;;20.05;62.29;99478.43;235733;1202;139662;-60
2022/06/17 09:07:49;;;;;;;17.90;12.50;;;;;;;20.15;62.33;99473.89;235970;1203;140658;-58
2022/06/17 09:13:01;;;;;;;49.90;35.20;;;;;;;20.43;62.66;99484.19;234822;1202;139836;-59
2022/06/17 09:18:28;;;;;;;15.60;11.00;;;;;;;20.60;62.29;99485.66;235744;1203;139075;-58
2022/06/17 09:23:37;;;;;;;18.90;10.50;;;;;;;20.60;61.68;99501.30;235891;1203;140058;-57
2022/06/17 09:28:51;;;;;;;174.40;144.00;;;;;;;20.56;61.39;99508.79;236038;1202;140983;-58
2022/06/17 09:34:21;;;;;;;20.80;16.20;;;;;;;20.54;61.48;99502.77;235910;1203;140271;-58
2022/06/17 09:39:41;;;;;;;12.60;8.70;;;;;;;20.74;61.59;99502.98;235911;1203;139961;-58
2022/06/17 09:44:52;;;;;;;8.10;7.20;;;;;;;20.95;61.24;99495.56;235878;1203;139126;-60
2022/06/17 09:50:00;;;;;;;10.50;7.00;;;;;;;21.01;60.79;99497.32;235869;1202;139133;-59
2022/06/17 09:55:22;;;;;;;7.60;3.50;;;;;;;20.99;60.77;99510.84;235796;1203;139509;-59
2022/06/17 10:00:47;;;;;;;5.20;3.00;;;;;;;21.00;60.09;99512.60;234384;1201;139074;-57
2022/06/17 10:05:57;;;;;;;17.20;9.80;;;;;;;21.02;60.00;99511.30;236058;1203;139278;-58
2022/06/17 10:11:13;;;;;;;6.30;3.50;;;;;;;21.02;59.94;99514.15;235475;1201;140980;-58
2022/06/17 10:22:54;;;;;;;12.10;8.50;;;;;;;21.06;59.52;99520.10;236126;1203;140857;-58
2022/06/17 10:28:27;;;;;;;11.00;7.60;;;;;;;21.16;59.36;99525.14;235932;1203;139072;-58
2022/06/17 10:33:39;;;;;;;6.10;4.20;;;;;;;21.55;59.39;99518.52;235584;1202;139665;-56
2022/06/17 10:38:46;;;;;;;5.60;2.90;;;;;;;21.66;58.32;99519.76;235151;1202;138848;-58
2022/06/17 10:43:51;;;;;;;9.10;4.10;;;;;;;21.77;57.91;99519.24;235965;1203;138628;-58
2022/06/17 10:49:16;;;;;;;6.50;3.70;;;;;;;22.14;57.75;99521.20;235890;1203;138913;-58
2022/06/17 10:54:28;;;;;;;3.60;2.70;;;;;;;22.41;56.97;99517.19;235965;1203;139234;-56
2022/06/17 10:59:39;;;;;;;6.10;2.70;;;;;;;22.64;56.45;99511.91;235933;1203;140655;-57
2022/06/17 11:04:50;;;;;;;8.80;3.10;;;;;;;22.83;55.88;99507.66;236082;1203;138976;-56
2022/06/17 11:09:56;;;;;;;6.90;3.00;;;;;;;23.08;55.64;99497.11;235970;1203;139287;-57
2022/06/17 11:15:03;;;;;;;5.10;3.30;;;;;;;23.42;54.65;99495.17;236204;1203;138447;-57
2022/06/17 11:20:35;;;;;;;6.00;3.00;;;;;;;23.64;54.22;99490.91;235937;1203;139067;-58
2022/06/17 11:26:11;;;;;;;4.90;2.80;;;;;;;23.89;53.53;99497.38;235779;1202;138643;-56
2022/06/17 11:31:15;;;;;;;4.20;2.80;;;;;;;23.98;52.84;99495.55;235973;1203;139228;-58
2022/06/17 11:36:36;;;;;;;3.10;2.10;;;;;;;24.27;52.35;99491.20;236019;1202;139109;-58
2022/06/17 11:41:41;;;;;;;2.60;1.60;;;;;;;24.41;50.46;99494.21;235868;1201;138773;-57
2022/06/17 11:46:54;;;;;;;5.30;2.70;;;;;;;24.57;50.12;99491.45;236094;1202;139108;-57
2022/06/17 11:52:01;;;;;;;5.00;2.90;;;;;;;24.40;49.89;99508.30;235986;1203;138807;-58
2022/06/17 11:57:17;;;;;;;6.20;2.50;;;;;;;23.92;49.62;99522.45;235776;1203;138729;-58
2022/06/17 12:02:21;;;;;;;4.30;2.50;;;;;;;23.79;50.13;99518.79;235877;1203;138694;-57
2022/06/17 12:07:46;;;;;;;2.70;1.70;;;;;;;24.13;50.52;99517.13;235884;1203;139319;-57
2022/06/17 12:12:53;;;;;;;4.50;1.80;;;;;;;24.59;50.10;99513.90;235732;1203;139357;-55
2022/06/17 12:18:01;;;;;;;3.30;2.00;;;;;;;24.94;49.16;99509.70;235945;1202;139134;-56
2022/06/17 12:23:15;;;;;;;5.20;1.80;;;;;;;25.30;48.41;99505.88;235927;1202;138989;-58
2022/06/17 12:28:27;;;;;;;3.50;1.70;;;;;;;25.38;47.12;99504.63;235946;1202;139096;-58
2022/06/17 12:34:09;;;;;;;4.50;1.70;;;;;;;25.54;47.01;99501.20;235965;1203;139104;-57
2022/06/17 12:39:28;;;;;;;3.20;1.60;;;;;;;25.79;46.00;99500.97;235954;1203;139573;-58
2022/06/17 12:44:43;;;;;;;5.10;2.30;;;;;;;25.97;45.47;99500.47;235726;1202;138565;-59
2022/06/17 12:55:32;;;;;;;5.00;1.90;;;;;;;26.06;44.96;99504.11;235932;1203;139394;-58
2022/06/17 13:00:47;;;;;;;6.10;2.00;;;;;;;26.10;44.62;99508.48;235863;1203;138687;-58
2022/06/17 13:05:53;;;;;;;;;;;;;;;26.14;44.49;99506.40;234982;1203;139561;-58
2022/06/17 13:11:12;;;;;;;6.50;3.60;;;;;;;26.13;45.01;99511.48;235940;1201;125978;-58
2022/06/17 13:16:30;;;;;;;6.10;2.00;;;;;;;25.84;44.91;99506.73;235764;1203;138772;-58
2022/06/17 13:21:51;;;;;;;4.40;1.80;;;;;;;25.56;44.73;99489.64;235139;1203;138696;-56
2022/06/17 13:27:02;;;;;;;4.10;1.40;;;;;;;25.26;44.14;99503.33;235816;1202;139675;-54
2022/06/17 13:32:21;;;;;;;1.90;1.10;;;;;;;24.93;43.64;99506.61;235749;1203;139395;-57
2022/06/17 13:38:02;;;;;;;1.50;0.90;;;;;;;24.81;43.53;99507.98;235814;1203;140224;-54
2022/06/17 13:43:16;;;;;;;5.10;1.40;;;;;;;24.85;43.84;99504.23;235607;1203;139761;-57
2022/06/17 13:48:28;;;;;;;0.70;0.70;;;;;;;25.34;44.01;99508.27;235661;1203;139867;-57
2022/06/17 13:53:43;;;;;;;2.90;0.90;;;;;;;25.47;43.22;99503.58;235788;1203;139904;-57
2022/06/17 13:58:50;;;;;;;34.20;29.00;;;;;;;25.56;43.18;99505.08;235916;1202;139646;-57
2022/06/17 14:04:01;;;;;;;3.40;1.40;;;;;;;25.92;42.23;99506.84;235786;1202;139879;-56
2022/06/17 14:09:24;;;;;;;4.90;3.90;;;;;;;26.19;41.38;99496.07;235817;1202;138730;-57
2022/06/17 14:14:29;;;;;;;1.50;0.80;;;;;;;26.39;40.16;99497.03;235064;1203;139083;-53
2022/06/17 14:19:50;;;;;;;3.70;1.30;;;;;;;26.45;40.09;99509.13;235781;1203;139731;-56
2022/06/17 14:24:52;;;;;;;2.30;1.10;;;;;;;26.39;40.51;99506.34;235781;1203;138758;-57
2022/06/17 14:30:10;;;;;;;3.00;0.80;;;;;;;26.22;40.31;99509.29;235719;1203;139223;-56
2022/06/17 14:35:29;;;;;;;1.40;0.80;;;;;;;26.26;40.60;99513.52;235706;1202;139925;-56
2022/06/17 14:42:01;;;;;;;2.20;0.90;;;;;;;26.23;40.57;99511.06;235789;1203;140018;-57
2022/06/17 14:46:00;;;;;;;2.00;0.90;;;;;;;26.10;40.50;99509.85;235739;1203;141113;-57
2022/06/17 14:51:30;;;;;;;2.50;1.10;;;;;;;25.69;40.51;99509.97;235673;1203;139376;-55
2022/06/17 14:57:03;;;;;;;3.40;1.20;;;;;;;25.32;40.89;99507.61;235423;1204;138987;-57
2022/06/17 15:02:09;;;;;;;4.10;1.10;;;;;;;25.13;40.92;99511.27;235571;1203;140641;-57
2022/06/17 15:07:17;;;;;;;2.20;1.00;;;;;;;25.03;40.83;99515.27;235728;1203;139114;-56
2022/06/17 15:12:34;;;;;;;123.30;88.50;;;;;;;24.85;40.70;99517.14;235709;1202;138821;-57
2022/06/17 15:17:47;;;;;;;5.60;3.40;;;;;;;24.69;40.77;99513.89;235693;1204;139264;-58
2022/06/17 15:23:11;;;;;;;2.80;2.30;;;;;;;24.63;40.90;99513.14;235693;1203;138893;-57
2022/06/17 15:28:32;;;;;;;6.70;4.10;;;;;;;24.52;41.05;99511.28;235764;1203;138671;-58
2022/06/17 15:34:03;;;;;;;4.00;1.20;;;;;;;24.48;41.03;99509.39;235621;1203;138772;-57
2022/06/17 15:39:41;;;;;;;2.40;1.10;;;;;;;24.39;40.91;99509.67;235628;1204;138837;-58
2022/06/17 15:44:57;;;;;;;;;;;;;;;24.26;40.99;99506.91;235494;1203;140367;-58
2022/06/17 15:50:04;;;;;;;4.40;1.50;;;;;;;24.13;40.98;99507.77;235886;1203;124752;-57
2022/06/17 15:55:18;;;;;;;2.50;1.10;;;;;;;24.02;41.05;99512.48;235491;1203;138649;-57
2022/06/17 16:00:44;;;;;;;2.10;1.10;;;;;;;23.97;41.19;99510.52;235706;1204;138392;-57
2022/06/17 16:05:54;;;;;;;31.80;24.80;;;;;;;23.89;41.08;99513.69;235635;1203;139772;-57
2022/06/17 16:11:07;;;;;;;3.60;2.30;;;;;;;23.85;41.13;99516.75;235656;1203;139519;-56
2022/06/17 16:16:25;;;;;;;5.20;3.50;;;;;;;23.82;41.34;99517.98;235705;1204;139133;-56
2022/06/17 16:21:33;;;;;;;5.20;1.60;;;;;;;23.79;41.43;99520.91;235432;1204;138741;-59
2022/06/17 16:26:51;;;;;;;4.60;1.60;;;;;;;23.76;41.33;99520.65;235696;1203;140671;-58
2022/06/17 16:32:07;;;;;;;2.30;1.30;;;;;;;23.70;41.44;99517.40;235699;1203;139198;-57
2022/06/17 16:37:18;;;;;;;;;;;;;;;23.69;41.43;99525.36;235514;1203;139237;-58
2022/06/17 16:47:45;;;;;;;2.50;1.20;;;;;;;23.59;41.74;99527.32;235661;1202;139018;-56
2022/06/17 16:52:51;;;;;;;3.10;1.40;;;;;;;23.58;41.82;99529.08;235830;1202;138960;-58
2022/06/17 16:57:55;;;;;;;4.60;2.20;;;;;;;23.55;42.19;99531.48;235664;1203;140208;-55
2022/06/17 17:02:58;;;;;;;4.70;2.00;;;;;;;23.48;42.53;99529.05;235693;1203;139687;-57
2022/06/17 17:08:01;;;;;;;2.80;1.80;;;;;;;23.44;42.78;99531.31;235770;1203;138754;-51
2022/06/17 17:13:04;;;;;;;2.80;1.50;;;;;;;23.36;42.86;99531.60;234513;1203;139927;-57
2022/06/17 17:18:08;;;;;;;10.20;5.10;;;;;;;23.28;43.13;99529.20;235633;1203;138871;-58
2022/06/17 17:23:11;;;;;;;3.70;2.20;;;;;;;23.26;43.27;99530.73;235667;1203;139078;-58
2022/06/17 17:28:15;;;;;;;3.40;1.70;;;;;;;23.23;43.32;99531.52;235791;1203;139002;-58
2022/06/17 17:33:19;;;;;;;4.40;2.00;;;;;;;23.25;43.28;99536.59;235683;1203;139023;-57
2022/06/17 17:38:23;;;;;;;6.50;2.20;;;;;;;23.24;43.26;99540.70;235638;1203;139554;-58
2022/06/17 17:43:26;;;;;;;6.60;2.90;;;;;;;23.22;43.50;99545.95;235630;1203;139193;-58
2022/06/17 17:48:28;;;;;;;4.10;1.70;;;;;;;23.15;43.66;99541.44;235670;1203;139728;-58
2022/06/17 17:53:32;;;;;;;8.20;1.90;;;;;;;23.17;43.65;99539.67;235632;1203;138939;-57
2022/06/17 17:58:35;;;;;;;5.50;1.80;;;;;;;23.18;43.89;99546.77;235704;1203;142946;-54
2022/06/17 18:03:38;;;;;;;8.50;1.90;;;;;;;23.19;43.80;99547.96;235672;1202;139620;-58
2022/06/17 18:08:41;;;;;;;6.10;2.40;;;;;;;23.17;43.98;99542.50;235800;1203;140097;-59
2022/06/17 18:13:46;;;;;;;4.80;2.00;;;;;;;23.23;43.96;99546.45;235713;1202;139834;-57
2022/06/17 18:18:50;;;;;;;4.20;1.50;;;;;;;23.24;44.02;99548.27;235525;1202;139612;-56
2022/06/17 18:23:55;;;;;;;4.60;1.70;;;;;;;23.21;43.91;99548.39;235646;1203;138748;-58
2022/06/17 18:29:00;;;;;;;5.30;2.00;;;;;;;23.20;43.92;99555.64;235710;1203;139750;-60
2022/06/17 18:34:05;;;;;;;3.00;1.60;;;;;;;23.16;43.89;99553.83;235721;1202;139047;-56
2022/06/17 18:39:17;;;;;;;6.20;1.80;;;;;;;23.13;44.03;99558.66;235652;1202;140455;-59
2022/06/17 18:44:20;;;;;;;88.80;65.10;;;;;;;23.09;44.02;99564.21;235652;1203;138748;-58
2022/06/17 18:49:23;;;;;;;12.10;6.50;;;;;;;23.03;44.23;99566.46;235672;1202;139283;-58
2022/06/17 18:54:26;;;;;;;7.50;3.30;;;;;;;22.94;44.23;99574.27;235672;1203;139395;-57
2022/06/17 18:59:29;;;;;;;8.30;4.20;;;;;;;22.82;44.63;99574.42;235670;1203;139192;-58
2022/06/17 19:04:32;;;;;;;113.60;92.50;;;;;;;22.71;44.82;99578.27;235867;1203;138977;-57
2022/06/17 19:20:19;;;;;;;17.90;10.60;;;;;;;22.54;45.26;99599.36;235674;1202;139999;-59
2022/06/17 19:25:22;;;;;;;7.30;4.90;;;;;;;22.43;45.63;99597.97;235672;1203;139092;-58
2022/06/17 19:30:26;;;;;;;6.00;3.20;;;;;;;22.33;45.64;99609.85;235203;1202;139410;-56
2022/06/17 19:35:46;;;;;;;5.60;2.30;;;;;;;22.21;45.56;99612.00;232912;1202;139003;-56
2022/06/17 19:41:42;;;;;;;5.90;2.40;;;;;;;22.01;45.60;99619.36;235806;1201;138832;-58
2022/06/17 19:46:16;;;;;;;111.00;85.90;;;;;;;21.84;45.78;99621.50;235749;1203;139162;-56
2022/06/17 19:51:21;;;;;;;10.80;7.00;;;;;;;21.70;46.12;99624.70;235622;1202;139296;-57
2022/06/17 19:56:29;;;;;;;8.50;3.10;;;;;;;21.56;46.29;99628.04;235693;1201;140298;-55
2022/06/17 20:01:39;;;;;;;7.50;3.00;;;;;;;21.40;46.58;99627.30;235668;1201;138787;-57
2022/06/17 20:06:42;;;;;;;5.50;2.90;;;;;;;21.26;46.77;99629.20;235941;1203;138599;-57
2022/06/17 20:11:49;;;;;;;6.30;2.70;;;;;;;21.15;46.95;99632.05;235846;1203;138657;-57
2022/06/17 20:16:54;;;;;;;6.80;2.70;;;;;;;21.09;47.21;99637.18;235849;1202;138265;-57
2022/06/17 20:22:00;;;;;;;5.70;2.70;;;;;;;20.99;47.34;99639.11;235757;1203;139231;-58
2022/06/17 20:27:05;;;;;;;7.70;2.90;;;;;;;20.88;47.42;99641.64;235742;1203;139942;-57
2022/06/17 20:32:08;;;;;;;7.30;3.60;;;;;;;20.78;47.76;99645.13;235756;1202;139168;-57
2022/06/17 20:37:13;;;;;;;9.50;3.20;;;;;;;20.63;48.15;99644.39;235750;1203;138820;-57
2022/06/17 20:42:31;;;;;;;6.60;2.90;;;;;;;20.48;48.57;99642.69;235699;1202;139657;-56
2022/06/17 20:52:56;;;;;;;13.40;6.50;;;;;;;20.27;48.98;99641.79;235780;1201;139187;-57
2022/06/17 20:58:08;;;;;;;10.20;3.40;;;;;;;20.22;49.16;99658.64;236072;1202;138550;-56
2022/06/17 21:03:13;;;;;;;6.70;3.20;;;;;;;20.16;49.33;99653.63;236277;1202;138663;-57
2022/06/17 21:08:19;;;;;;;6.00;2.80;;;;;;;20.14;49.33;99655.65;236269;1202;138817;-55
2022/06/17 21:13:25;;;;;;;7.30;3.70;;;;;;;20.07;49.53;99655.29;236258;1202;139134;-57
2022/06/17 21:18:28;;;;;;;5.80;2.80;;;;;;;20.02;49.65;99659.37;234624;1201;139160;-54
2022/06/17 21:23:36;;;;;;;9.10;3.90;;;;;;;19.90;49.90;99667.11;234881;1203;140639;-55
2022/06/17 21:28:39;;;;;;;9.60;3.90;;;;;;;19.82;49.99;99662.84;233305;1203;139024;-57
2022/06/17 21:33:43;;;;;;;6.40;4.10;;;;;;;19.74;50.15;99654.96;236218;1203;138538;-58
2022/06/17 21:38:57;;;;;;;6.30;3.40;;;;;;;19.69;50.37;99653.04;236333;1202;140340;-58
2022/06/17 21:44:00;;;;;;;6.10;3.50;;;;;;;19.57;50.55;99649.67;236319;1203;139662;-58
2022/06/17 21:49:03;;;;;;;7.00;3.90;;;;;;;19.48;50.83;99649.67;235939;1203;139232;-57
2022/06/17 21:54:16;;;;;;;8.80;3.70;;;;;;;19.34;50.92;99647.48;235893;1203;139652;-58
2022/06/17 21:59:42;;;;;;;8.30;4.00;;;;;;;19.24;51.33;99655.06;235807;1203;140050;-58
2022/06/17 22:04:46;;;;;;;;;;;;;;;19.13;51.73;99660.64;235591;1204;139561;-58
2022/06/17 22:09:51;;;;;;;6.60;4.00;;;;;;;19.01;51.99;99662.98;235503;1204;125810;-59
2022/06/17 22:14:54;;;;;;;11.10;3.70;;;;;;;18.93;52.30;99659.92;235838;1203;139471;-59
2022/06/17 22:19:57;;;;;;;9.40;4.20;;;;;;;18.85;52.13;99666.13;235826;1202;139443;-57
2022/06/17 22:25:02;;;;;;;6.10;3.90;;;;;;;18.81;52.47;99667.21;235878;1203;139430;-56
2022/06/17 22:30:11;;;;;;;11.90;4.10;;;;;;;18.78;52.74;99661.34;235656;1203;139453;-55
2022/06/17 22:35:22;;;;;;;9.60;4.00;;;;;;;18.77;52.53;99673.15;235602;1203;139164;-57
2022/06/17 22:40:31;;;;;;;7.40;4.30;;;;;;;18.77;52.84;99669.20;236059;1203;138651;-58
2022/06/17 22:45:40;;;;;;;9.80;4.40;;;;;;;18.75;52.86;99665.92;235883;1202;138783;-58
2022/06/17 22:50:46;;;;;;;11.10;4.40;;;;;;;18.79;52.87;99669.77;235812;1201;140061;-58
2022/06/17 22:55:50;;;;;;;6.40;4.60;;;;;;;18.75;52.87;99666.29;235826;1202;139791;-58
2022/06/17 23:00:55;;;;;;;9.00;4.50;;;;;;;18.78;53.21;99667.67;235828;1201;139409;-57
2022/06/17 23:06:00;;;;;;;9.90;4.50;;;;;;;18.80;53.29;99664.08;235691;1203;139104;-58
2022/06/17 23:11:03;;;;;;;12.00;5.40;;;;;;;18.82;53.63;99667.88;236021;1202;139682;-58
2022/06/17 23:16:10;;;;;;;7.60;4.80;;;;;;;18.83;53.48;99675.34;235516;1202;142549;-57
2022/06/17 23:21:24;;;;;;;8.70;4.90;;;;;;;18.83;53.56;99679.78;235705;1203;140114;-58
2022/06/17 23:26:29;;;;;;;9.50;5.00;;;;;;;18.79;53.47;99681.00;235846;1201;139490;-58
2022/06/17 23:31:36;;;;;;;8.20;4.80;;;;;;;18.81;53.67;99673.52;235395;1201;138938;-59
2022/06/17 23:36:39;;;;;;;9.30;4.90;;;;;;;18.80;53.84;99670.90;235818;1203;139533;-60
2022/06/17 23:41:43;;;;;;;8.20;5.00;;;;;;;18.76;53.54;99673.75;234984;1202;138982;-56
2022/06/17 23:46:46;;;;;;;10.20;4.90;;;;;;;18.70;53.68;99664.73;235641;1202;139706;-57
2022/06/17 23:51:51;;;;;;;8.40;5.00;;;;;;;18.70;53.64;99673.02;235813;1203;139515;-58
2022/06/17 23:56:57;;;;;;;12.00;5.20;;;;;;;18.64;53.73;99669.85;235705;1203;139487;-56
